sensor_id;sensor_type;location;lat;lon;timestamp;temperature;humidity
43995;DHT22;51687;52.160;5.298;2022-12-18T00:01:13;8.00;43.90
43995;DHT22;51687;52.160;5.298;2022-12-18T00:03:40;8.00;43.40
43995;DHT22;51687;52.160;5.298;2022-12-18T00:06:09;8.00;44.00
43995;DHT22;51687;52.160;5.298;2022-12-18T00:08:36;8.00;43.30
43995;DHT22;51687;52.160;5.298;2022-12-18T00:11:04;8.00;44.10
43995;DHT22;51687;52.160;5.298;2022-12-18T00:13:32;7.90;43.40
43995;DHT22;51687;52.160;5.298;2022-12-18T00:16:03;7.80;43.80
43995;DHT22;51687;52.160;5.298;2022-12-18T00:18:31;7.80;43.50
43995;DHT22;51687;52.160;5.298;2022-12-18T00:21:06;7.70;43.80
43995;DHT22;51687;52.160;5.298;2022-12-18T00:23:34;7.70;43.70
43995;DHT22;51687;52.160;5.298;2022-12-18T00:26:05;7.70;43.80
43995;DHT22;51687;52.160;5.298;2022-12-18T00:28:32;7.60;43.70
43995;DHT22;51687;52.160;5.298;2022-12-18T00:31:07;7.60;43.90
43995;DHT22;51687;52.160;5.298;2022-12-18T00:33:34;7.60;43.90
43995;DHT22;51687;52.160;5.298;2022-12-18T00:36:07;7.50;44.00
43995;DHT22;51687;52.160;5.298;2022-12-18T00:38:35;7.50;44.20
43995;DHT22;51687;52.160;5.298;2022-12-18T00:41:02;7.40;44.10
43995;DHT22;51687;52.160;5.298;2022-12-18T00:43:29;7.40;44.40
43995;DHT22;51687;52.160;5.298;2022-12-18T00:45:55;7.40;44.40
43995;DHT22;51687;52.160;5.298;2022-12-18T00:48:22;7.40;44.20
43995;DHT22;51687;52.160;5.298;2022-12-18T00:50:50;7.40;44.30
43995;DHT22;51687;52.160;5.298;2022-12-18T00:53:17;7.40;44.30
43995;DHT22;51687;52.160;5.298;2022-12-18T00:55:44;7.40;44.00
43995;DHT22;51687;52.160;5.298;2022-12-18T00:58:13;7.40;44.30
43995;DHT22;51687;52.160;5.298;2022-12-18T01:00:40;7.40;43.90
43995;DHT22;51687;52.160;5.298;2022-12-18T01:03:07;7.40;43.90
43995;DHT22;51687;52.160;5.298;2022-12-18T01:05:34;7.40;44.00
43995;DHT22;51687;52.160;5.298;2022-12-18T01:08:01;7.40;43.90
43995;DHT22;51687;52.160;5.298;2022-12-18T01:10:27;7.40;43.70
43995;DHT22;51687;52.160;5.298;2022-12-18T01:12:54;7.40;44.00
43995;DHT22;51687;52.160;5.298;2022-12-18T01:15:21;7.40;43.70
43995;DHT22;51687;52.160;5.298;2022-12-18T01:17:48;7.40;43.50
43995;DHT22;51687;52.160;5.298;2022-12-18T01:20:15;7.30;43.50
43995;DHT22;51687;52.160;5.298;2022-12-18T01:22:42;7.20;43.50
43995;DHT22;51687;52.160;5.298;2022-12-18T01:25:08;7.10;43.80
43995;DHT22;51687;52.160;5.298;2022-12-18T01:27:35;7.10;43.80
43995;DHT22;51687;52.160;5.298;2022-12-18T01:30:02;7.10;43.70
43995;DHT22;51687;52.160;5.298;2022-12-18T01:32:30;7.10;43.80
43995;DHT22;51687;52.160;5.298;2022-12-18T01:34:58;7.00;43.90
43995;DHT22;51687;52.160;5.298;2022-12-18T01:37:24;7.10;44.20
43995;DHT22;51687;52.160;5.298;2022-12-18T01:39:52;7.10;43.90
43995;DHT22;51687;52.160;5.298;2022-12-18T01:42:21;7.00;44.10
43995;DHT22;51687;52.160;5.298;2022-12-18T01:44:56;7.00;44.30
43995;DHT22;51687;52.160;5.298;2022-12-18T01:49:54;7.20;45.10
43995;DHT22;51687;52.160;5.298;2022-12-18T01:52:22;7.30;44.70
43995;DHT22;51687;52.160;5.298;2022-12-18T01:54:50;7.40;44.50
43995;DHT22;51687;52.160;5.298;2022-12-18T01:57:18;7.50;44.30
43995;DHT22;51687;52.160;5.298;2022-12-18T01:59:49;7.50;44.10
43995;DHT22;51687;52.160;5.298;2022-12-18T02:02:17;7.60;43.50
43995;DHT22;51687;52.160;5.298;2022-12-18T02:04:45;7.60;43.50
43995;DHT22;51687;52.160;5.298;2022-12-18T02:13:42;7.70;43.00
43995;DHT22;51687;52.160;5.298;2022-12-18T02:18:50;7.80;43.00
43995;DHT22;51687;52.160;5.298;2022-12-18T02:24:10;7.80;42.10
43995;DHT22;51687;52.160;5.298;2022-12-18T02:26:47;7.90;42.60
43995;DHT22;51687;52.160;5.298;2022-12-18T02:29:41;8.00;42.00
43995;DHT22;51687;52.160;5.298;2022-12-18T02:32:15;8.00;41.70
43995;DHT22;51687;52.160;5.298;2022-12-18T02:34:44;8.10;41.90
43995;DHT22;51687;52.160;5.298;2022-12-18T02:37:15;8.10;41.90
43995;DHT22;51687;52.160;5.298;2022-12-18T02:39:44;8.20;41.60
43995;DHT22;51687;52.160;5.298;2022-12-18T02:42:12;8.30;41.30
43995;DHT22;51687;52.160;5.298;2022-12-18T02:44:48;8.50;41.20
43995;DHT22;51687;52.160;5.298;2022-12-18T02:47:18;8.50;40.40
43995;DHT22;51687;52.160;5.298;2022-12-18T02:52:23;8.50;40.80
43995;DHT22;51687;52.160;5.298;2022-12-18T02:57:54;8.60;39.90
43995;DHT22;51687;52.160;5.298;2022-12-18T03:00:24;8.60;40.40
43995;DHT22;51687;52.160;5.298;2022-12-18T03:03:05;8.70;40.10
43995;DHT22;51687;52.160;5.298;2022-12-18T03:05:41;8.80;39.10
43995;DHT22;51687;52.160;5.298;2022-12-18T03:08:18;8.90;39.40
43995;DHT22;51687;52.160;5.298;2022-12-18T03:10:49;8.90;39.00
43995;DHT22;51687;52.160;5.298;2022-12-18T03:13:25;8.80;39.20
43995;DHT22;51687;52.160;5.298;2022-12-18T03:15:56;8.60;38.90
43995;DHT22;51687;52.160;5.298;2022-12-18T03:18:39;8.60;39.10
43995;DHT22;51687;52.160;5.298;2022-12-18T03:21:09;8.70;38.60
43995;DHT22;51687;52.160;5.298;2022-12-18T03:23:41;8.80;38.90
43995;DHT22;51687;52.160;5.298;2022-12-18T03:26:12;8.90;38.40
43995;DHT22;51687;52.160;5.298;2022-12-18T03:28:53;9.00;38.40
43995;DHT22;51687;52.160;5.298;2022-12-18T03:31:23;9.10;37.70
43995;DHT22;51687;52.160;5.298;2022-12-18T03:34:01;9.10;38.10
43995;DHT22;51687;52.160;5.298;2022-12-18T03:36:29;9.20;37.90
43995;DHT22;51687;52.160;5.298;2022-12-18T03:38:56;9.20;38.10
43995;DHT22;51687;52.160;5.298;2022-12-18T03:41:32;9.30;37.80
43995;DHT22;51687;52.160;5.298;2022-12-18T03:44:24;9.20;36.80
43995;DHT22;51687;52.160;5.298;2022-12-18T03:47:39;9.20;37.20
43995;DHT22;51687;52.160;5.298;2022-12-18T03:50:16;9.20;37.30
43995;DHT22;51687;52.160;5.298;2022-12-18T03:55:49;9.10;37.40
43995;DHT22;51687;52.160;5.298;2022-12-18T03:58:19;9.00;37.80
43995;DHT22;51687;52.160;5.298;2022-12-18T04:00:48;9.00;37.50
43995;DHT22;51687;52.160;5.298;2022-12-18T04:03:16;9.00;37.20
43995;DHT22;51687;52.160;5.298;2022-12-18T04:05:52;8.90;40.30
43995;DHT22;51687;52.160;5.298;2022-12-18T04:08:21;8.90;38.00
43995;DHT22;51687;52.160;5.298;2022-12-18T04:10:48;8.90;37.60
43995;DHT22;51687;52.160;5.298;2022-12-18T04:13:23;8.90;37.60
43995;DHT22;51687;52.160;5.298;2022-12-18T04:15:50;9.00;37.10
43995;DHT22;51687;52.160;5.298;2022-12-18T04:18:16;9.00;37.10
43995;DHT22;51687;52.160;5.298;2022-12-18T04:20:43;9.20;37.00
43995;DHT22;51687;52.160;5.298;2022-12-18T04:23:10;9.20;36.60
43995;DHT22;51687;52.160;5.298;2022-12-18T04:25:36;9.30;36.90
43995;DHT22;51687;52.160;5.298;2022-12-18T04:28:03;9.30;36.90
43995;DHT22;51687;52.160;5.298;2022-12-18T04:30:30;9.30;36.70
43995;DHT22;51687;52.160;5.298;2022-12-18T04:32:56;9.30;36.50
43995;DHT22;51687;52.160;5.298;2022-12-18T04:35:23;9.30;36.30
43995;DHT22;51687;52.160;5.298;2022-12-18T04:37:50;9.20;36.40
43995;DHT22;51687;52.160;5.298;2022-12-18T04:40:16;9.20;36.40
43995;DHT22;51687;52.160;5.298;2022-12-18T04:42:43;9.20;36.20
43995;DHT22;51687;52.160;5.298;2022-12-18T04:45:10;9.10;35.90
43995;DHT22;51687;52.160;5.298;2022-12-18T04:47:37;9.00;36.20
43995;DHT22;51687;52.160;5.298;2022-12-18T04:50:04;8.90;36.20
43995;DHT22;51687;52.160;5.298;2022-12-18T04:52:31;8.90;36.30
43995;DHT22;51687;52.160;5.298;2022-12-18T04:54:58;8.90;36.30
43995;DHT22;51687;52.160;5.298;2022-12-18T04:57:24;8.90;36.40
43995;DHT22;51687;52.160;5.298;2022-12-18T04:59:51;8.90;37.80
43995;DHT22;51687;52.160;5.298;2022-12-18T05:02:18;8.80;36.50
43995;DHT22;51687;52.160;5.298;2022-12-18T05:04:45;8.90;36.70
43995;DHT22;51687;52.160;5.298;2022-12-18T05:07:11;8.90;36.70
43995;DHT22;51687;52.160;5.298;2022-12-18T05:09:38;9.00;36.50
43995;DHT22;51687;52.160;5.298;2022-12-18T05:12:05;9.00;36.50
43995;DHT22;51687;52.160;5.298;2022-12-18T05:14:31;9.00;36.60
43995;DHT22;51687;52.160;5.298;2022-12-18T05:16:59;9.10;36.40
43995;DHT22;51687;52.160;5.298;2022-12-18T05:19:26;9.10;36.30
43995;DHT22;51687;52.160;5.298;2022-12-18T05:21:53;9.10;36.40
43995;DHT22;51687;52.160;5.298;2022-12-18T05:24:20;9.10;36.10
43995;DHT22;51687;52.160;5.298;2022-12-18T05:26:47;9.10;36.50
43995;DHT22;51687;52.160;5.298;2022-12-18T05:29:13;9.10;36.20
43995;DHT22;51687;52.160;5.298;2022-12-18T05:31:40;9.10;36.10
43995;DHT22;51687;52.160;5.298;2022-12-18T05:34:08;9.20;36.20
43995;DHT22;51687;52.160;5.298;2022-12-18T05:36:36;9.20;36.30
43995;DHT22;51687;52.160;5.298;2022-12-18T05:39:03;9.30;36.10
43995;DHT22;51687;52.160;5.298;2022-12-18T05:41:31;9.30;35.70
43995;DHT22;51687;52.160;5.298;2022-12-18T05:43:58;9.30;36.30
43995;DHT22;51687;52.160;5.298;2022-12-18T05:46:25;9.40;36.10
43995;DHT22;51687;52.160;5.298;2022-12-18T05:48:52;9.40;35.60
43995;DHT22;51687;52.160;5.298;2022-12-18T05:51:21;9.40;35.50
43995;DHT22;51687;52.160;5.298;2022-12-18T05:53:48;9.40;34.90
43995;DHT22;51687;52.160;5.298;2022-12-18T05:56:21;9.30;35.30
43995;DHT22;51687;52.160;5.298;2022-12-18T05:58:51;9.30;35.10
43995;DHT22;51687;52.160;5.298;2022-12-18T06:01:21;9.30;35.40
43995;DHT22;51687;52.160;5.298;2022-12-18T06:03:48;9.20;35.40
43995;DHT22;51687;52.160;5.298;2022-12-18T06:06:21;9.30;35.70
43995;DHT22;51687;52.160;5.298;2022-12-18T06:08:52;9.30;35.10
43995;DHT22;51687;52.160;5.298;2022-12-18T06:11:22;9.40;35.50
43995;DHT22;51687;52.160;5.298;2022-12-18T06:13:51;9.60;38.60
43995;DHT22;51687;52.160;5.298;2022-12-18T06:16:24;9.50;34.20
43995;DHT22;51687;52.160;5.298;2022-12-18T06:18:51;9.20;33.60
43995;DHT22;51687;52.160;5.298;2022-12-18T06:21:18;8.90;33.70
43995;DHT22;51687;52.160;5.298;2022-12-18T06:23:45;8.60;34.10
43995;DHT22;51687;52.160;5.298;2022-12-18T06:26:12;8.30;34.30
43995;DHT22;51687;52.160;5.298;2022-12-18T06:28:39;8.00;34.80
43995;DHT22;51687;52.160;5.298;2022-12-18T06:31:06;7.70;35.40
43995;DHT22;51687;52.160;5.298;2022-12-18T06:33:33;7.40;35.90
43995;DHT22;51687;52.160;5.298;2022-12-18T06:36:04;7.20;36.30
43995;DHT22;51687;52.160;5.298;2022-12-18T06:38:33;7.00;36.70
43995;DHT22;51687;52.160;5.298;2022-12-18T06:41:00;6.80;37.00
43995;DHT22;51687;52.160;5.298;2022-12-18T06:43:26;6.60;37.30
43995;DHT22;51687;52.160;5.298;2022-12-18T06:46:00;6.40;37.70
43995;DHT22;51687;52.160;5.298;2022-12-18T06:48:27;6.20;38.10
43995;DHT22;51687;52.160;5.298;2022-12-18T06:50:54;6.10;38.30
43995;DHT22;51687;52.160;5.298;2022-12-18T06:53:21;6.00;38.50
43995;DHT22;51687;52.160;5.298;2022-12-18T06:55:48;5.90;38.70
43995;DHT22;51687;52.160;5.298;2022-12-18T06:58:15;5.80;38.90
43995;DHT22;51687;52.160;5.298;2022-12-18T07:00:41;5.70;39.30
43995;DHT22;51687;52.160;5.298;2022-12-18T07:03:09;5.60;39.60
43995;DHT22;51687;52.160;5.298;2022-12-18T07:05:41;5.50;40.20
43995;DHT22;51687;52.160;5.298;2022-12-18T07:08:07;5.50;39.90
43995;DHT22;51687;52.160;5.298;2022-12-18T07:10:44;5.40;40.10
43995;DHT22;51687;52.160;5.298;2022-12-18T07:13:15;5.20;40.40
43995;DHT22;51687;52.160;5.298;2022-12-18T07:15:43;5.10;40.70
43995;DHT22;51687;52.160;5.298;2022-12-18T07:18:10;5.00;40.90
43995;DHT22;51687;52.160;5.298;2022-12-18T07:20:37;5.00;41.30
43995;DHT22;51687;52.160;5.298;2022-12-18T07:23:04;4.90;41.50
43995;DHT22;51687;52.160;5.298;2022-12-18T07:25:35;4.80;41.80
43995;DHT22;51687;52.160;5.298;2022-12-18T07:28:02;4.70;42.40
43995;DHT22;51687;52.160;5.298;2022-12-18T07:30:29;4.70;42.60
43995;DHT22;51687;52.160;5.298;2022-12-18T07:32:56;4.70;42.80
43995;DHT22;51687;52.160;5.298;2022-12-18T07:35:23;4.70;42.90
43995;DHT22;51687;52.160;5.298;2022-12-18T07:37:51;4.60;43.00
43995;DHT22;51687;52.160;5.298;2022-12-18T07:40:17;4.60;43.00
43995;DHT22;51687;52.160;5.298;2022-12-18T07:42:44;4.60;43.20
43995;DHT22;51687;52.160;5.298;2022-12-18T07:45:11;4.60;43.40
43995;DHT22;51687;52.160;5.298;2022-12-18T07:47:37;4.60;43.60
43995;DHT22;51687;52.160;5.298;2022-12-18T07:50:05;4.50;43.80
43995;DHT22;51687;52.160;5.298;2022-12-18T07:52:32;4.50;44.00
43995;DHT22;51687;52.160;5.298;2022-12-18T07:54:59;4.40;44.00
43995;DHT22;51687;52.160;5.298;2022-12-18T07:57:26;4.40;44.20
43995;DHT22;51687;52.160;5.298;2022-12-18T08:00:16;4.40;44.50
43995;DHT22;51687;52.160;5.298;2022-12-18T08:02:43;4.30;44.70
43995;DHT22;51687;52.160;5.298;2022-12-18T08:05:10;4.30;45.10
43995;DHT22;51687;52.160;5.298;2022-12-18T08:07:36;4.30;45.10
43995;DHT22;51687;52.160;5.298;2022-12-18T08:10:03;4.20;45.60
43995;DHT22;51687;52.160;5.298;2022-12-18T08:12:31;4.10;45.90
43995;DHT22;51687;52.160;5.298;2022-12-18T08:14:58;4.00;46.20
43995;DHT22;51687;52.160;5.298;2022-12-18T08:17:25;3.90;46.60
43995;DHT22;51687;52.160;5.298;2022-12-18T08:19:52;3.80;47.00
43995;DHT22;51687;52.160;5.298;2022-12-18T08:22:18;3.70;47.30
43995;DHT22;51687;52.160;5.298;2022-12-18T08:24:47;3.70;47.40
43995;DHT22;51687;52.160;5.298;2022-12-18T08:27:14;3.80;47.00
43995;DHT22;51687;52.160;5.298;2022-12-18T08:29:57;3.80;47.00
43995;DHT22;51687;52.160;5.298;2022-12-18T08:32:25;3.90;47.30
43995;DHT22;51687;52.160;5.298;2022-12-18T08:34:53;3.90;47.20
43995;DHT22;51687;52.160;5.298;2022-12-18T08:37:19;3.90;46.90
43995;DHT22;51687;52.160;5.298;2022-12-18T08:39:46;4.00;47.00
43995;DHT22;51687;52.160;5.298;2022-12-18T08:42:13;4.00;47.20
43995;DHT22;51687;52.160;5.298;2022-12-18T08:44:58;4.00;47.30
43995;DHT22;51687;52.160;5.298;2022-12-18T08:47:25;4.00;47.60
43995;DHT22;51687;52.160;5.298;2022-12-18T08:49:52;4.10;47.50
43995;DHT22;51687;52.160;5.298;2022-12-18T08:52:19;4.10;47.20
43995;DHT22;51687;52.160;5.298;2022-12-18T08:54:46;4.20;47.50
43995;DHT22;51687;52.160;5.298;2022-12-18T08:57:12;4.30;47.20
43995;DHT22;51687;52.160;5.298;2022-12-18T08:59:39;4.40;47.00
43995;DHT22;51687;52.160;5.298;2022-12-18T09:02:06;4.40;47.00
43995;DHT22;51687;52.160;5.298;2022-12-18T09:04:33;4.50;46.90
43995;DHT22;51687;52.160;5.298;2022-12-18T09:07:00;4.50;46.80
43995;DHT22;51687;52.160;5.298;2022-12-18T09:09:26;4.60;46.90
43995;DHT22;51687;52.160;5.298;2022-12-18T09:11:53;4.60;46.80
43995;DHT22;51687;52.160;5.298;2022-12-18T09:14:20;4.70;46.90
43995;DHT22;51687;52.160;5.298;2022-12-18T09:16:46;4.70;46.80
43995;DHT22;51687;52.160;5.298;2022-12-18T09:19:13;4.70;46.70
43995;DHT22;51687;52.160;5.298;2022-12-18T09:21:40;4.80;46.50
43995;DHT22;51687;52.160;5.298;2022-12-18T09:24:14;4.80;46.50
43995;DHT22;51687;52.160;5.298;2022-12-18T09:26:41;4.90;46.60
43995;DHT22;51687;52.160;5.298;2022-12-18T09:29:09;4.80;46.40
43995;DHT22;51687;52.160;5.298;2022-12-18T09:31:36;4.90;46.80
43995;DHT22;51687;52.160;5.298;2022-12-18T09:34:05;4.90;46.60
43995;DHT22;51687;52.160;5.298;2022-12-18T09:36:32;4.90;46.50
43995;DHT22;51687;52.160;5.298;2022-12-18T09:38:59;5.00;46.60
43995;DHT22;51687;52.160;5.298;2022-12-18T09:44:39;4.90;47.40
43995;DHT22;51687;52.160;5.298;2022-12-18T09:47:27;4.90;47.30
43995;DHT22;51687;52.160;5.298;2022-12-18T09:50:03;5.00;47.40
43995;DHT22;51687;52.160;5.298;2022-12-18T09:52:33;5.00;47.60
43995;DHT22;51687;52.160;5.298;2022-12-18T09:57:42;5.20;47.60
43995;DHT22;51687;52.160;5.298;2022-12-18T10:00:22;5.20;47.80
43995;DHT22;51687;52.160;5.298;2022-12-18T10:03:01;5.30;47.10
43995;DHT22;51687;52.160;5.298;2022-12-18T10:08:22;5.40;47.10
43995;DHT22;51687;52.160;5.298;2022-12-18T10:10:53;5.30;47.00
43995;DHT22;51687;52.160;5.298;2022-12-18T10:13:42;5.40;47.20
43995;DHT22;51687;52.160;5.298;2022-12-18T10:16:17;5.40;47.20
43995;DHT22;51687;52.160;5.298;2022-12-18T10:24:32;5.70;47.90
43995;DHT22;51687;52.160;5.298;2022-12-18T10:27:12;5.90;48.60
43995;DHT22;51687;52.160;5.298;2022-12-18T10:29:41;6.20;48.50
43995;DHT22;51687;52.160;5.298;2022-12-18T10:32:13;6.40;48.20
43995;DHT22;51687;52.160;5.298;2022-12-18T10:34:40;6.60;51.20
43995;DHT22;51687;52.160;5.298;2022-12-18T10:37:16;6.80;51.40
43995;DHT22;51687;52.160;5.298;2022-12-18T10:39:43;7.00;47.60
43995;DHT22;51687;52.160;5.298;2022-12-18T10:42:18;7.20;47.10
43995;DHT22;51687;52.160;5.298;2022-12-18T10:44:45;7.40;46.80
43995;DHT22;51687;52.160;5.298;2022-12-18T10:47:15;7.60;46.80
43995;DHT22;51687;52.160;5.298;2022-12-18T10:49:51;7.70;46.60
43995;DHT22;51687;52.160;5.298;2022-12-18T10:52:21;7.90;46.50
43995;DHT22;51687;52.160;5.298;2022-12-18T10:54:54;8.10;45.20
43995;DHT22;51687;52.160;5.298;2022-12-18T11:00:13;8.40;44.90
43995;DHT22;51687;52.160;5.298;2022-12-18T11:02:46;8.60;50.50
43995;DHT22;51687;52.160;5.298;2022-12-18T11:05:29;8.70;46.50
43995;DHT22;51687;52.160;5.298;2022-12-18T11:07:57;8.90;43.50
43995;DHT22;51687;52.160;5.298;2022-12-18T11:10:36;9.00;43.40
43995;DHT22;51687;52.160;5.298;2022-12-18T11:13:18;9.10;43.40
43995;DHT22;51687;52.160;5.298;2022-12-18T11:15:46;9.30;42.10
43995;DHT22;51687;52.160;5.298;2022-12-18T11:18:36;9.40;42.30
43995;DHT22;51687;52.160;5.298;2022-12-18T11:21:09;9.40;41.80
43995;DHT22;51687;52.160;5.298;2022-12-18T11:23:37;9.50;41.70
43995;DHT22;51687;52.160;5.298;2022-12-18T11:26:10;9.60;42.40
43995;DHT22;51687;52.160;5.298;2022-12-18T11:33:46;9.70;41.10
43995;DHT22;51687;52.160;5.298;2022-12-18T11:36:44;9.70;41.60
43995;DHT22;51687;52.160;5.298;2022-12-18T11:39:39;9.80;41.90
43995;DHT22;51687;52.160;5.298;2022-12-18T11:42:09;9.90;41.70
43995;DHT22;51687;52.160;5.298;2022-12-18T11:44:41;9.90;41.30
43995;DHT22;51687;52.160;5.298;2022-12-18T11:47:19;10.00;40.90
43995;DHT22;51687;52.160;5.298;2022-12-18T11:49:49;10.10;40.20
43995;DHT22;51687;52.160;5.298;2022-12-18T11:52:23;10.10;41.00
43995;DHT22;51687;52.160;5.298;2022-12-18T11:54:51;10.20;40.30
43995;DHT22;51687;52.160;5.298;2022-12-18T12:00:09;10.30;40.50
43995;DHT22;51687;52.160;5.298;2022-12-18T12:07:57;10.60;45.20
43995;DHT22;51687;52.160;5.298;2022-12-18T12:16:07;10.80;40.20
43995;DHT22;51687;52.160;5.298;2022-12-18T12:18:40;10.80;41.10
43995;DHT22;51687;52.160;5.298;2022-12-18T12:27:17;10.90;40.10
43995;DHT22;51687;52.160;5.298;2022-12-18T12:30:03;11.00;39.20
43995;DHT22;51687;52.160;5.298;2022-12-18T12:33:02;10.90;38.40
43995;DHT22;51687;52.160;5.298;2022-12-18T12:35:52;10.90;39.00
43995;DHT22;51687;52.160;5.298;2022-12-18T12:38:27;10.90;38.80
43995;DHT22;51687;52.160;5.298;2022-12-18T12:40:59;10.90;38.40
43995;DHT22;51687;52.160;5.298;2022-12-18T12:43:46;10.80;38.50
43995;DHT22;51687;52.160;5.298;2022-12-18T12:46:19;10.80;38.30
43995;DHT22;51687;52.160;5.298;2022-12-18T12:48:55;10.70;38.40
43995;DHT22;51687;52.160;5.298;2022-12-18T12:51:38;10.70;39.40
43995;DHT22;51687;52.160;5.298;2022-12-18T12:54:14;10.70;38.90
43995;DHT22;51687;52.160;5.298;2022-12-18T12:57:02;10.70;38.40
43995;DHT22;51687;52.160;5.298;2022-12-18T12:59:39;10.70;39.50
43995;DHT22;51687;52.160;5.298;2022-12-18T13:02:39;10.60;39.80
43995;DHT22;51687;52.160;5.298;2022-12-18T13:05:37;10.60;39.00
43995;DHT22;51687;52.160;5.298;2022-12-18T13:08:10;10.50;38.90
43995;DHT22;51687;52.160;5.298;2022-12-18T13:10:42;10.50;38.90
43995;DHT22;51687;52.160;5.298;2022-12-18T13:13:10;10.50;38.60
43995;DHT22;51687;52.160;5.298;2022-12-18T13:15:48;10.50;38.40
43995;DHT22;51687;52.160;5.298;2022-12-18T13:18:19;10.50;39.60
43995;DHT22;51687;52.160;5.298;2022-12-18T13:23:34;10.50;38.80
43995;DHT22;51687;52.160;5.298;2022-12-18T13:31:14;10.60;38.80
43995;DHT22;51687;52.160;5.298;2022-12-18T13:33:44;10.60;39.10
43995;DHT22;51687;52.160;5.298;2022-12-18T13:36:33;10.70;42.10
43995;DHT22;51687;52.160;5.298;2022-12-18T13:41:50;10.50;38.40
43995;DHT22;51687;52.160;5.298;2022-12-18T13:44:39;10.50;38.90
43995;DHT22;51687;52.160;5.298;2022-12-18T13:47:31;10.50;39.00
43995;DHT22;51687;52.160;5.298;2022-12-18T13:49:59;10.60;41.90
43995;DHT22;51687;52.160;5.298;2022-12-18T13:52:28;10.60;39.80
43995;DHT22;51687;52.160;5.298;2022-12-18T13:55:02;10.50;38.80
43995;DHT22;51687;52.160;5.298;2022-12-18T13:57:34;10.50;38.90
43995;DHT22;51687;52.160;5.298;2022-12-18T14:02:52;10.40;41.80
43995;DHT22;51687;52.160;5.298;2022-12-18T14:05:37;10.50;40.20
43995;DHT22;51687;52.160;5.298;2022-12-18T14:08:13;10.60;39.40
43995;DHT22;51687;52.160;5.298;2022-12-18T14:10:43;10.60;39.50
43995;DHT22;51687;52.160;5.298;2022-12-18T14:13:26;10.60;39.40
43995;DHT22;51687;52.160;5.298;2022-12-18T14:15:55;10.50;38.00
43995;DHT22;51687;52.160;5.298;2022-12-18T14:21:00;10.50;38.40
43995;DHT22;51687;52.160;5.298;2022-12-18T14:25:55;10.30;39.40
43995;DHT22;51687;52.160;5.298;2022-12-18T14:28:29;10.30;40.30
43995;DHT22;51687;52.160;5.298;2022-12-18T14:30:56;10.30;39.20
43995;DHT22;51687;52.160;5.298;2022-12-18T14:33:28;10.30;38.10
43995;DHT22;51687;52.160;5.298;2022-12-18T14:36:02;10.20;38.30
43995;DHT22;51687;52.160;5.298;2022-12-18T14:38:30;10.20;38.90
43995;DHT22;51687;52.160;5.298;2022-12-18T14:41:11;10.20;39.00
43995;DHT22;51687;52.160;5.298;2022-12-18T14:43:40;10.20;38.40
43995;DHT22;51687;52.160;5.298;2022-12-18T14:48:56;10.10;39.20
43995;DHT22;51687;52.160;5.298;2022-12-18T14:51:25;10.20;46.30
43995;DHT22;51687;52.160;5.298;2022-12-18T14:54:01;10.20;42.40
43995;DHT22;51687;52.160;5.298;2022-12-18T14:56:34;10.20;39.80
43995;DHT22;51687;52.160;5.298;2022-12-18T14:59:14;10.30;39.10
43995;DHT22;51687;52.160;5.298;2022-12-18T15:04:35;10.20;40.50
43995;DHT22;51687;52.160;5.298;2022-12-18T15:07:04;10.20;39.40
43995;DHT22;51687;52.160;5.298;2022-12-18T15:09:31;10.20;39.60
43995;DHT22;51687;52.160;5.298;2022-12-18T15:12:00;10.10;39.10
43995;DHT22;51687;52.160;5.298;2022-12-18T15:14:34;10.10;39.00
43995;DHT22;51687;52.160;5.298;2022-12-18T15:17:18;10.10;39.20
43995;DHT22;51687;52.160;5.298;2022-12-18T15:19:48;10.00;39.20
43995;DHT22;51687;52.160;5.298;2022-12-18T15:24:54;10.00;39.20
43995;DHT22;51687;52.160;5.298;2022-12-18T15:27:22;10.00;41.30
43995;DHT22;51687;52.160;5.298;2022-12-18T15:32:36;10.10;40.00
43995;DHT22;51687;52.160;5.298;2022-12-18T15:37:40;10.00;39.00
43995;DHT22;51687;52.160;5.298;2022-12-18T15:40:15;10.10;39.90
43995;DHT22;51687;52.160;5.298;2022-12-18T15:42:43;10.10;38.70
43995;DHT22;51687;52.160;5.298;2022-12-18T15:45:29;10.00;39.30
43995;DHT22;51687;52.160;5.298;2022-12-18T15:47:55;10.00;39.70
43995;DHT22;51687;52.160;5.298;2022-12-18T15:50:23;10.00;39.00
43995;DHT22;51687;52.160;5.298;2022-12-18T15:52:51;10.00;39.40
43995;DHT22;51687;52.160;5.298;2022-12-18T15:55:21;10.00;38.50
43995;DHT22;51687;52.160;5.298;2022-12-18T15:58:09;10.00;38.30
43995;DHT22;51687;52.160;5.298;2022-12-18T16:00:37;10.00;39.10
43995;DHT22;51687;52.160;5.298;2022-12-18T16:03:05;10.00;38.30
43995;DHT22;51687;52.160;5.298;2022-12-18T16:05:33;10.00;38.40
43995;DHT22;51687;52.160;5.298;2022-12-18T16:08:00;9.90;38.30
43995;DHT22;51687;52.160;5.298;2022-12-18T16:10:27;10.00;39.70
43995;DHT22;51687;52.160;5.298;2022-12-18T16:12:54;10.00;40.00
43995;DHT22;51687;52.160;5.298;2022-12-18T16:15:20;10.00;38.80
43995;DHT22;51687;52.160;5.298;2022-12-18T16:17:50;10.00;39.20
43995;DHT22;51687;52.160;5.298;2022-12-18T16:20:20;10.10;39.70
43995;DHT22;51687;52.160;5.298;2022-12-18T16:22:48;10.10;39.50
43995;DHT22;51687;52.160;5.298;2022-12-18T16:25:22;10.20;40.10
43995;DHT22;51687;52.160;5.298;2022-12-18T16:27:50;10.20;38.50
43995;DHT22;51687;52.160;5.298;2022-12-18T16:30:19;10.20;39.00
43995;DHT22;51687;52.160;5.298;2022-12-18T16:32:46;10.20;39.20
43995;DHT22;51687;52.160;5.298;2022-12-18T16:35:14;10.30;39.70
43995;DHT22;51687;52.160;5.298;2022-12-18T16:37:42;10.30;39.20
43995;DHT22;51687;52.160;5.298;2022-12-18T16:40:12;10.30;39.00
43995;DHT22;51687;52.160;5.298;2022-12-18T16:42:41;10.20;39.00
43995;DHT22;51687;52.160;5.298;2022-12-18T16:45:10;10.30;39.30
43995;DHT22;51687;52.160;5.298;2022-12-18T16:47:38;10.30;40.30
43995;DHT22;51687;52.160;5.298;2022-12-18T16:50:06;10.30;39.30
43995;DHT22;51687;52.160;5.298;2022-12-18T16:52:33;10.30;38.80
43995;DHT22;51687;52.160;5.298;2022-12-18T16:55:00;10.40;39.80
43995;DHT22;51687;52.160;5.298;2022-12-18T16:57:27;10.40;38.20
43995;DHT22;51687;52.160;5.298;2022-12-18T16:59:53;10.40;38.30
43995;DHT22;51687;52.160;5.298;2022-12-18T17:02:26;10.40;39.30
43995;DHT22;51687;52.160;5.298;2022-12-18T17:04:55;10.40;39.60
43995;DHT22;51687;52.160;5.298;2022-12-18T17:07:22;10.40;39.10
43995;DHT22;51687;52.160;5.298;2022-12-18T17:09:49;10.40;39.20
43995;DHT22;51687;52.160;5.298;2022-12-18T17:12:17;10.40;38.40
43995;DHT22;51687;52.160;5.298;2022-12-18T17:14:43;10.40;39.70
43995;DHT22;51687;52.160;5.298;2022-12-18T17:17:12;10.40;39.40
43995;DHT22;51687;52.160;5.298;2022-12-18T17:19:49;10.40;37.80
43995;DHT22;51687;52.160;5.298;2022-12-18T17:22:16;10.30;39.40
43995;DHT22;51687;52.160;5.298;2022-12-18T17:24:43;10.30;38.70
43995;DHT22;51687;52.160;5.298;2022-12-18T17:27:09;10.30;39.60
43995;DHT22;51687;52.160;5.298;2022-12-18T17:29:36;10.30;39.50
43995;DHT22;51687;52.160;5.298;2022-12-18T17:32:09;10.50;42.20
43995;DHT22;51687;52.160;5.298;2022-12-18T17:34:35;10.60;42.00
43995;DHT22;51687;52.160;5.298;2022-12-18T17:37:03;10.70;39.90
43995;DHT22;51687;52.160;5.298;2022-12-18T17:39:29;10.70;39.50
43995;DHT22;51687;52.160;5.298;2022-12-18T17:41:57;10.70;37.90